Latest Weather Observations for Palmerville

IDQ60801

Issued at 3:32 pm EST Tuesday 4 August 2015 (issued every 30 minutes, with the page automatically refreshed every 10 minutes)

About weather observations | Map of weather stations | Latest weather observations for QLD | Other Formats
Station Details ID: 028004 Name: PALMERVILLE Lat: -16.00 Lon: 144.08 Height: 203.8 m
Data from the previous 72 hours. | See also: Recent months at Palmerville
Date/Time
EST
Temp
°C
App
Temp
°C
Dew
Point
Rel
Hum
%
Delta-T
°C
Wind Press
QNH
hPa
Press
MSL
hPa
Rain
since 9 am
mm
Dir
 
Spd
km/h
Gust
km/h
Spd
kts
Gust
kts
04/03:00pm 30.7 27.1 6.6 22 13.0 SE 15 22 8 12 1012.8 1011.9 0.0
04/02:30pm 30.8 28.1 7.3 23 12.9 S 11 22 6 12 1013.4 1012.4 0.0
04/02:00pm 29.8 26.8 7.7 25 12.1 SSW 13 20 7 11 1013.9 1012.9 0.0
04/01:30pm 29.7 27.4 7.6 25 12.1 SW 9 20 5 11 1014.5 1013.6 0.0
04/01:00pm 29.6 27.7 7.5 25 12.1 NNE 7 13 4 7 1015.2 1014.3 0.0
04/12:30pm 28.2 26.0 8.0 28 11.0 SSW 9 20 5 11 1016.0 1015.1 0.0
04/12:00pm 27.5 26.1 8.9 31 10.3 SSE 6 13 3 7 1016.7 1015.8 0.0
04/11:30am 26.8 24.8 8.7 32 9.9 S 9 17 5 9 1017.2 1016.3 0.0
04/11:00am 26.0 24.4 8.9 34 9.4 SSE 7 13 4 7 1017.7 1016.8 0.0
04/10:30am 24.9 24.0 10.7 40 8.0 SE 6 9 3 5 1018.2 1017.2 0.0
04/10:00am 23.3 22.6 11.4 47 6.7 NE 6 9 3 5 1018.4 1017.4 0.0
04/09:30am 22.4 22.7 12.1 52 5.9 SSE 2 6 1 3 1018.5 1017.5 0.0
04/09:00am 20.4 19.6 11.6 57 4.9 SSW 7 11 4 6 1018.5 1017.5 0.0
04/08:30am 18.7 19.3 11.8 64 3.8 CALM 0 0 0 0 1018.3 1017.3 0.0
04/08:00am 16.0 16.4 11.2 73 2.6 CALM 0 0 0 0 1017.9 1017.0 0.0
04/07:30am 13.1 13.3 10.6 85 1.3 CALM 0 0 0 0 1017.6 1016.7 0.0
04/07:00am 11.6 11.5 9.3 86 1.2 CALM 0 0 0 0 1016.9 1016.0 0.0
04/06:30am 12.0 11.6 9.9 87 1.1 ENE 2 6 1 3 1016.4 1015.5 0.0
04/06:00am 12.6 12.7 10.1 85 1.3 CALM 0 0 0 0 1016.0 1015.1 0.0
04/05:30am 13.0 12.0 10.2 83 1.5 ESE 6 9 3 5 1016.0 1015.1 0.0
04/05:00am 13.2 13.1 9.6 79 1.9 CALM 0 0 0 0 1015.8 1014.9 0.0
04/04:30am 14.5 13.5 10.3 76 2.2 SE 6 7 3 4 1015.5 1014.6 0.0
04/04:00am 14.9 13.9 11.1 78 2.0 E 7 11 4 6 1015.3 1014.4 0.0
04/03:30am 14.8 13.9 11.2 79 1.9 ESE 7 9 4 5 1015.2 1014.3 0.0
04/03:00am 14.5 14.8 10.9 79 1.9 CALM 0 6 0 3 1015.4 1014.5 0.0
04/02:30am 15.2 15.5 10.8 75 2.4 CALM 0 0 0 0 1015.4 1014.5 0.0
04/02:00am 16.4 16.7 10.9 70 3.0 CALM 0 4 0 2 1015.7 1014.8 0.0
04/01:30am 17.5 16.7 11.1 66 3.5 ENE 6 7 3 4 1015.9 1015.0 0.0
04/01:00am 17.9 17.1 11.2 65 3.7 ESE 6 7 3 4 1015.8 1014.9 0.0
04/12:30am 18.8 18.1 11.4 62 4.1 ESE 6 7 3 4 1016.0 1015.1 0.0
04/12:00am 19.8 19.2 11.8 60 4.5 ESE 6 7 3 4 1016.3 1015.4 0.0
 
Date/Time
EST
Temp
°C
App
Temp
°C
Dew
Point
Rel
Hum
%
Delta-T
°C
Wind Press
QNH
hPa
Press
MSL
hPa
Rain
since 9 am
mm
Dir
 
Spd
km/h
Gust
km/h
Spd
kts
Gust
kts
03/11:30pm 20.4 19.9 11.9 58 4.8 E 6 9 3 5 1016.6 1015.7 0.0
03/11:00pm 21.1 20.5 11.7 55 5.3 ENE 6 11 3 6 1016.6 1015.7 0.0
03/10:30pm 21.3 20.3 11.1 52 5.7 NE 7 9 4 5 1016.4 1015.5 0.0
03/10:00pm 22.5 21.3 11.6 50 6.2 NNE 9 13 5 7 1016.5 1015.6 0.0
03/09:30pm 23.2 21.9 11.3 47 6.7 NE 9 13 5 7 1016.5 1015.6 0.0
03/09:00pm 24.3 22.1 10.9 43 7.5 NE 13 20 7 11 1016.3 1015.4 0.0
03/08:30pm 24.5 21.9 9.3 38 8.3 NE 13 17 7 9 1016.1 1015.2 0.0
03/08:00pm 25.5 23.2 8.9 35 9.1 NE 11 19 6 10 1015.9 1015.0 0.0
03/07:30pm 26.0 23.7 7.6 31 9.9 NE 9 15 5 8 1015.6 1014.7 0.0
03/07:00pm 26.9 24.3 7.9 30 10.3 NE 11 19 6 10 1015.3 1014.4 0.0
03/06:30pm 27.4 25.3 8.3 30 10.5 NE 9 13 5 7 1014.9 1014.0 0.0
03/06:00pm 29.5 26.4 3.5 19 13.3 SSE 9 13 5 7 1014.5 1013.6 0.0
03/05:30pm 30.6 27.5 3.6 18 13.9 SSE 9 15 5 8 1014.5 1013.6 0.0
03/05:00pm 31.0 27.0 3.1 17 14.3 SSW 13 20 7 11 1014.5 1013.6 0.0
03/04:30pm 31.3 26.9 2.5 16 14.6 S 15 24 8 13 1014.3 1013.4 0.0
03/04:00pm 31.6 27.4 3.6 17 14.5 SSW 15 24 8 13 1014.2 1013.3 0.0
03/03:30pm 31.6 27.6 2.7 16 14.7 SSE 13 24 7 13 1014.3 1013.4 0.0
03/03:00pm 31.9 28.8 3.8 17 14.6 SE 9 15 5 8 1014.4 1013.5 0.0
03/02:30pm 32.1 28.1 3.1 16 14.9 S 13 24 7 13 1014.6 1013.7 0.0
03/02:00pm 31.9 28.1 3.8 17 14.6 SSE 13 20 7 11 1015.2 1014.3 0.0
03/01:30pm 31.2 28.4 7.0 22 13.2 NNE 11 20 6 11 1015.5 1014.6 0.0
03/01:00pm 31.0 27.3 8.1 24 12.7 SSE 17 22 9 12 1016.0 1015.1 0.0
03/12:30pm 30.1 28.2 9.1 27 11.8 E 9 19 5 10 1016.6 1015.7 0.0
03/12:00pm 28.5 25.1 9.2 30 10.8 SSE 17 24 9 13 1017.3 1016.4 0.0
03/11:30am 28.7 26.0 10.4 32 10.4 SE 15 20 8 11 1017.8 1016.9 0.0
03/11:00am 28.1 26.5 11.6 36 9.6 E 11 19 6 10 1018.2 1017.2 0.0
03/10:30am 25.8 24.1 12.6 44 7.7 ENE 13 20 7 11 1018.6 1017.7 0.0
03/10:00am 24.4 23.4 13.3 50 6.5 E 11 19 6 10 1018.8 1017.9 0.0
03/09:30am 23.2 23.0 13.1 53 5.9 NNE 6 11 3 6 1019.1 1018.2 0.0
03/09:00am 21.4 20.9 12.0 55 5.3 E 6 7 3 4 1019.0 1018.1 0.0
03/08:30am 19.4 18.5 11.4 60 4.4 E 7 11 4 6 1018.8 1017.9 0.0
03/08:00am 17.4 16.6 11.7 69 3.1 E 7 9 4 5 1018.5 1017.5 0.0
03/07:30am 14.9 14.3 11.7 81 1.7 E 6 9 3 5 1018.2 1017.2 0.0
03/07:00am 13.2 13.4 10.7 85 1.3 CALM 0 0 0 0 1017.8 1016.9 0.0
03/06:30am 13.7 14.0 10.9 83 1.5 CALM 0 0 0 0 1017.5 1016.6 0.0
03/06:00am 13.6 13.8 10.4 81 1.7 CALM 0 0 0 0 1017.2 1016.3 0.0
03/05:30am 14.2 13.6 10.4 78 2.0 ENE 4 9 2 5 1016.9 1016.0 0.0
03/05:00am 14.7 13.9 10.9 78 2.0 E 6 9 3 5 1016.7 1015.8 0.0
03/04:30am 15.8 14.9 11.2 74 2.5 E 7 9 4 5 1016.8 1015.9 0.0
03/04:00am 14.8 14.0 11.0 78 2.0 ENE 6 7 3 4 1016.8 1015.9 0.0
03/03:30am 15.1 14.3 11.1 77 2.2 ENE 6 9 3 5 1016.8 1015.9 0.0
03/03:00am 15.5 15.6 10.3 71 2.8 CALM 0 0 0 0 1017.0 1016.1 0.0
03/02:30am 17.2 16.2 11.0 67 3.4 ENE 7 9 4 5 1017.2 1016.3 0.0
03/02:00am 17.8 16.9 11.4 66 3.5 ENE 7 11 4 6 1017.2 1016.3 0.0
03/01:30am 18.4 17.5 11.5 64 3.8 ENE 7 11 4 6 1017.4 1016.5 0.0
03/01:00am 19.0 18.4 11.6 62 4.1 E 6 9 3 5 1017.5 1016.6 0.0
03/12:30am 19.2 19.3 11.5 61 4.3 ENE 2 7 1 4 1017.6 1016.7 0.0
03/12:00am 19.8 19.9 11.6 59 4.6 ENE 2 7 1 4 1017.8 1016.9 0.0
 
Date/Time
EST
Temp
°C
App
Temp
°C
Dew
Point
Rel
Hum
%
Delta-T
°C
Wind Press
QNH
hPa
Press
MSL
hPa
Rain
since 9 am
mm
Dir
 
Spd
km/h
Gust
km/h
Spd
kts
Gust
kts
02/11:30pm 20.6 20.4 11.8 57 4.9 E 4 9 2 5 1017.9 1017.0 0.0
02/11:00pm 20.9 20.6 11.3 54 5.3 E 4 11 2 6 1018.0 1017.1 0.0
02/10:30pm 21.3 20.4 11.3 53 5.6 E 7 11 4 6 1018.0 1017.1 0.0
02/10:00pm 21.7 20.9 11.1 51 5.9 ENE 6 11 3 6 1017.9 1017.0 0.0
02/09:30pm 22.5 21.2 11.3 49 6.3 ENE 9 15 5 8 1017.9 1017.0 0.0
02/09:00pm 23.0 21.7 11.4 48 6.5 ENE 9 15 5 8 1017.9 1017.0 0.0
02/08:30pm 23.5 22.4 11.9 48 6.6 E 9 13 5 7 1017.7 1016.8 0.0
02/08:00pm 24.3 22.8 11.9 45 7.1 E 11 17 6 9 1017.3 1016.4 0.0
02/07:30pm 25.0 23.6 12.2 44 7.4 E 11 17 6 9 1016.9 1016.0 0.0
02/07:00pm 25.7 24.5 11.5 41 8.1 E 9 13 5 7 1016.4 1015.5 0.0
02/06:30pm 26.5 25.5 11.0 38 8.8 E 7 13 4 7 1015.9 1015.0 0.0
02/06:00pm 27.7 26.3 10.9 35 9.6 ENE 9 15 5 8 1015.8 1014.9 0.0
02/05:30pm 28.6 26.3 10.3 32 10.4 E 13 19 7 10 1015.6 1014.7 0.0
02/05:00pm 29.1 27.6 10.7 32 10.6 ENE 9 19 5 10 1015.6 1014.7 0.0
02/04:30pm 29.6 27.4 10.7 31 10.9 ENE 13 19 7 10 1015.6 1014.7 0.0
02/04:00pm 29.8 27.1 10.4 30 11.1 ENE 15 22 8 12 1015.6 1014.7 0.0
02/03:30pm 30.0 27.9 11.0 31 11.0 ENE 13 24 7 13 1015.6 1014.7 0.0
02/03:00pm 29.4 27.1 10.5 31 10.8 E 13 24 7 13 1015.9 1015.0 0.0
02/02:30pm 29.6 27.9 11.2 32 10.7 N 11 17 6 9 1016.3 1015.4 0.0
02/02:00pm 29.3 27.1 10.9 32 10.6 ENE 13 20 7 11 1016.9 1016.0 0.0
02/01:30pm 28.8 27.3 10.5 32 10.5 NE 9 17 5 9 1017.3 1016.4 0.0
02/01:00pm 28.8 26.1 10.5 32 10.4 ESE 15 24 8 13 1017.8 1016.9 0.0
02/12:30pm 28.3 26.3 11.4 35 9.8 E 13 24 7 13 1018.5 1017.5 0.0
02/12:00pm 28.0 25.4 12.0 37 9.3 E 17 28 9 15 1019.1 1018.2 0.0
02/11:30am 26.8 25.0 13.2 43 8.1 E 15 20 8 11 1019.4 1018.5 0.0
02/11:00am 26.1 25.3 13.9 47 7.3 ENE 11 20 6 11 1019.7 1018.8 0.0
02/10:30am 25.2 24.8 14.0 49 6.7 ENE 9 17 5 9 1020.1 1019.2 0.0
02/10:00am 23.7 22.9 13.0 51 6.2 ENE 9 13 5 7 1020.5 1019.6 0.0
02/09:30am 23.2 22.6 13.4 54 5.7 ENE 9 13 5 7 1020.5 1019.6 0.0
02/09:00am 22.0 22.9 13.9 60 4.7 NNE 2 7 1 4 1020.4 1019.5 0.0
02/08:30am 20.0 21.1 13.5 66 3.8 CALM 0 0 0 0 1020.0 1019.1 0.0
02/08:00am 17.2 18.0 12.7 75 2.5 CALM 0 0 0 0 1019.6 1018.7 0.0
02/07:30am 14.7 14.7 12.4 86 1.3 E 4 7 2 4 1019.4 1018.5 0.0
02/07:00am 13.3 12.6 11.5 89 1.0 ESE 6 7 3 4 1019.1 1018.2 0.0
02/06:30am 13.2 13.5 10.9 86 1.2 CALM 0 0 0 0 1018.9 1018.0 0.0
02/06:00am 13.2 13.5 10.9 86 1.2 CALM 0 0 0 0 1018.5 1017.5 0.0
02/05:30am 13.3 12.4 11.2 87 1.1 E 7 11 4 6 1018.0 1017.1 0.0
02/05:00am 13.2 13.5 10.9 86 1.2 CALM 0 0 0 0 1017.8 1016.9 0.0
02/04:30am 13.4 13.7 10.8 84 1.4 CALM 0 0 0 0 1017.8 1016.9 0.0
02/04:00am 14.2 14.6 11.4 83 1.5 CALM 0 0 0 0 1017.8 1016.9 0.0
02/03:30am 14.6 15.0 11.4 81 1.7 CALM 0 0 0 0 1017.7 1016.8 0.0
02/03:00am 15.3 16.0 12.1 81 1.8 CALM 0 0 0 0 1017.7 1016.8 0.0
02/02:30am 15.9 16.3 11.1 73 2.6 CALM 0 0 0 0 1017.6 1016.7 0.0
02/02:00am 17.7 18.3 11.9 69 3.2 CALM 0 0 0 0 1017.7 1016.8 0.0
02/01:30am 18.3 17.8 12.1 67 3.5 NE 6 7 3 4 1017.8 1016.9 0.0
02/01:00am 18.9 17.4 11.9 64 3.9 E 11 15 6 8 1018.0 1017.1 0.0
02/12:30am 19.6 18.2 12.1 62 4.2 ENE 11 17 6 9 1017.9 1017.0 0.0
02/12:00am 19.5 18.4 12.0 62 4.2 E 9 17 5 9 1017.8 1016.9 0.0
 
Date/Time
EST
Temp
°C
App
Temp
°C
Dew
Point
Rel
Hum
%
Delta-T
°C
Wind Press
QNH
hPa
Press
MSL
hPa
Rain
since 9 am
mm
Dir
 
Spd
km/h
Gust
km/h
Spd
kts
Gust
kts
01/11:30pm 20.0 18.9 12.0 60 4.5 ENE 9 19 5 10 1017.9 1017.0 0.0
01/11:00pm 20.6 18.4 12.1 58 4.8 E 15 20 8 11 1017.9 1017.0 0.0
01/10:30pm 21.2 18.6 12.1 56 5.2 E 17 24 9 13 1017.8 1016.9 0.0
01/10:00pm 21.1 19.9 11.7 55 5.3 ENE 9 15 5 8 1017.6 1016.7 0.0
01/09:30pm 21.5 20.0 11.8 54 5.5 ENE 11 19 6 10 1017.5 1016.6 0.0
01/09:00pm 22.1 20.3 12.1 53 5.7 ENE 13 24 7 13 1017.4 1016.5 0.0
01/08:30pm 22.6 20.9 12.5 53 5.8 E 13 20 7 11 1017.2 1016.3 0.0
01/08:00pm 23.3 21.6 12.3 50 6.3 E 13 20 7 11 1016.9 1016.0 0.0
01/07:30pm 24.2 22.6 12.8 49 6.6 ENE 13 22 7 12 1016.6 1015.7 0.0
01/07:00pm 24.9 24.4 12.5 46 7.2 NE 7 13 4 7 1016.0 1015.1 0.0
01/06:30pm 25.7 23.6 12.5 44 7.7 ENE 15 20 8 11 1015.4 1014.5 0.0
01/06:00pm 26.8 24.9 11.7 39 8.7 ENE 13 19 7 10 1015.1 1014.2 0.0
01/05:30pm 27.8 25.6 10.9 35 9.7 ENE 13 20 7 11 1015.1 1014.2 0.0
01/05:00pm 28.6 26.5 11.2 34 10.0 E 13 24 7 13 1014.9 1014.0 0.0
01/04:30pm 29.2 26.2 10.8 32 10.6 E 17 24 9 13 1014.9 1014.0 0.0
01/04:00pm 29.9 28.3 11.4 32 10.8 E 11 24 6 13 1014.8 1013.9 0.0

Other Formats:

Comma delimited format used in spreadsheet applications
http://www.bom.gov.au/fwo/IDQ60801/IDQ60801.94276.axf

JavaScript Object Notation format (JSON) in row-major order
http://www.bom.gov.au/fwo/IDQ60801/IDQ60801.94276.json